Date,TemperatureHighF,TemperatureAvgF,TemperatureLowF,DewpointHighF,DewpointAvgF,DewpointLowF,HumidityHigh,HumidityAvg,HumidityLow,PressureMaxIn,PressureMinIn,WindSpeedMaxMPH,WindSpeedAvgMPH,GustSpeedMaxMPH,PrecipitationSumIn
2013-1-1,33.3,31.0,24.8,30.1,27.1,18.9,91,85,77,30.11,29.99,2,0,4,0.00
2013-1-2,29.7,23.4,19.1,18.8,16.0,13.3,88,73,60,30.29,30.09,5,1,11,0.00
2013-1-3,36.2,24.5,11.6,24.0,17.0,8.1,87,74,59,30.29,30.17,6,2,10,0.06
2013-1-4,35.1,30.9,28.9,23.6,22.1,19.9,76,70,61,30.29,30.19,6,2,13,0.03
2013-1-5,38.1,31.3,27.1,27.2,23.4,19.1,82,72,62,30.43,30.18,4,1,9,0.16
2013-1-6,39.9,35.4,30.6,31.7,29.0,25.7,85,78,67,30.23,30.02,3,1,6,0.12
2013-1-7,37.9,32.0,23.3,28.9,25.7,19.5,92,78,65,30.49,30.23,4,1,6,0.02
2013-1-8,47.6,30.6,19.1,35.2,24.3,16.1,88,79,57,30.41,30.30,3,0,4,0.03
2013-1-9,49.5,33.9,24.0,42.8,30.5,21.0,93,87,75,30.51,30.26,4,0,7,0.03
2013-1-10,31.0,29.0,27.5,28.1,26.3,25.0,90,90,89,30.55,30.51,0,0,0,0.00
2013-1-14,57.0,40.3,32.6,55.3,33.6,25.4,94,77,64,30.38,29.88,4,1,15,0.04
2013-1-15,34.2,30.9,26.0,29.4,24.8,21.8,89,78,70,30.42,30.09,2,0,8,0.06
2013-1-16,35.4,33.6,32.3,33.3,31.2,29.4,93,91,85,30.08,29.92,3,0,10,0.30
2013-1-17,35.5,33.8,32.5,29.9,28.6,27.7,85,81,77,30.21,30.07,3,1,11,0.02
2013-1-18,34.1,28.4,19.7,26.8,17.3,11.0,83,63,52,30.54,30.20,6,2,16,0.00
2013-1-19,55.4,43.9,29.2,28.8,24.3,17.8,65,47,33,30.29,29.85,7,2,20,0.00
2013-1-20,25.8,25.5,25.1,15.0,14.7,14.3,65,63,62,30.16,30.14,2,1,3,0.00
2013-1-21,28.2,23.4,14.1,19.0,13.8,2.9,84,66,55,30.14,29.95,7,2,14,0.00
2013-1-22,15.2,11.3,8.1,3.4,0.5,-1.7,71,61,53,30.35,30.11,7,3,14,0.00
2013-1-23,17.5,13.1,6.8,9.8,2.7,-0.6,76,63,50,30.38,30.14,5,1,12,0.00
2013-1-24,23.6,17.3,12.0,12.4,8.1,2.3,82,68,42,30.60,30.12,4,1,9,0.00
2013-1-25,20.2,16.3,12.4,15.6,9.9,4.2,84,76,63,30.59,30.08,1,0,1,0.00
2013-1-26,28.6,23.0,13.6,22.1,18.1,9.1,87,81,73,30.50,30.15,3,1,8,0.01
2013-1-27,33.9,22.5,6.5,24.0,15.2,3.0,88,74,54,30.61,30.36,1,0,4,0.14
2013-1-28,49.2,39.8,30.0,47.8,37.3,23.8,95,91,77,30.36,30.04,1,0,4,0.44
2013-1-29,66.5,52.4,44.1,57.7,49.2,42.8,96,89,71,30.07,29.78,3,0,4,0.01
2013-1-30,69.4,56.5,46.5,59.9,52.2,44.0,94,86,66,29.79,29.23,4,1,8,0.94
2013-1-31,49.0,43.4,37.4,44.7,39.5,33.6,88,86,80,29.36,29.22,5,3,13,0.08
2013-2-1,23.9,16.8,11.1,17.7,8.6,4.3,83,70,62,30.41,29.85,5,2,24,0.00
2013-2-2,24.7,16.3,9.8,19.9,10.2,4.0,82,76,72,30.38,30.05,3,1,14,0.00
2013-2-3,27.6,23.9,19.0,23.3,19.7,13.1,89,84,73,30.09,29.86,3,1,11,0.00
2013-2-4,28.8,23.0,18.2,23.9,17.6,11.9,89,80,68,30.13,29.90,4,0,15,0.03
2013-2-5,32.5,29.5,26.8,29.9,26.6,24.0,92,89,79,29.98,29.86,1,0,6,0.00
2013-2-6,34.4,28.8,18.5,26.5,23.3,14.7,90,80,62,30.38,29.98,3,0,10,0.06
2013-2-7,44.5,30.2,16.4,31.9,23.5,13.2,89,77,61,30.36,30.01,2,0,9,0.14
2013-2-8,40.4,33.7,27.0,36.4,28.9,22.0,91,82,75,30.17,29.82,6,2,17,0.12
2013-2-9,36.6,27.4,21.8,22.8,19.6,17.4,83,73,51,30.43,30.17,5,1,12,0.00
2013-2-10,54.1,33.9,16.9,30.1,21.7,13.4,88,65,35,30.41,29.99,2,0,7,0.00
2013-2-11,63.6,47.8,38.0,49.3,36.6,27.0,95,68,36,29.99,29.65,10,3,26,0.01
2013-2-12,44.6,37.0,27.9,29.9,26.4,23.4,83,66,54,30.08,29.92,7,3,20,0.00
2013-2-13,40.6,31.1,24.0,31.5,26.5,20.7,90,83,65,29.95,29.70,2,0,4,0.02
2013-2-14,30.4,30.0,29.5,28.0,26.9,25.9,91,88,86,29.94,29.89,1,0,7,0.00
2013-2-15,39.6,34.8,26.5,31.9,28.9,23.2,89,79,65,30.08,29.98,4,1,11,0.00
2013-2-16,30.8,26.3,21.0,23.6,19.6,15.2,92,76,58,30.08,29.95,4,1,12,0.06
2013-2-17,22.1,20.8,19.7,18.8,17.4,16.2,87,86,84,29.99,29.96,4,1,9,0.00
2013-2-18,45.2,26.1,7.6,29.7,17.1,3.4,84,70,46,30.38,29.91,3,0,10,0.02
2013-2-19,44.8,35.3,24.1,39.1,28.9,16.3,88,77,61,29.99,29.70,9,3,25,0.16
2013-2-20,23.6,21.3,19.3,18.2,13.6,10.8,84,72,62,30.27,30.00,9,4,22,0.00
2013-2-21,28.3,22.9,20.5,17.5,15.3,12.8,80,72,60,30.41,30.24,6,1,14,0.00
2013-2-22,39.3,31.7,22.7,34.1,25.2,15.3,89,77,59,30.33,30.02,3,0,9,0.00
2013-2-23,45.4,36.2,29.9,37.9,31.7,26.4,90,84,73,30.03,29.87,2,0,6,0.00
2013-2-24,32.3,29.8,26.7,26.5,24.1,22.3,90,80,68,30.18,29.88,5,1,13,0.00
2013-2-25,44.5,33.0,23.3,28.5,24.4,19.5,89,72,51,30.27,30.08,4,0,10,0.00
2013-2-26,41.2,35.4,26.1,36.3,29.1,22.0,91,79,56,30.10,29.60,5,1,14,0.59
2013-2-27,43.9,39.9,35.4,39.1,36.0,31.9,92,86,74,29.70,29.57,4,1,12,0.20
2013-2-28,35.4,34.2,33.5,32.3,30.7,28.9,92,87,82,29.83,29.64,3,1,9,0.10
2013-3-1,33.6,31.3,27.6,30.6,26.0,21.0,89,80,74,30.00,29.82,4,1,13,0.00
2013-3-2,30.1,27.5,26.0,24.7,21.7,19.8,89,79,71,29.99,29.93,4,1,8,0.00
2013-3-3,28.7,26.8,24.2,23.4,20.5,18.0,87,77,69,30.04,29.95,7,3,16,0.00
2013-3-4,39.4,28.5,22.6,24.3,19.8,16.8,84,70,51,30.16,30.04,7,2,17,0.01
2013-3-5,48.0,33.7,19.7,29.1,20.7,15.3,88,62,30,30.13,29.71,5,1,13,0.00
2013-3-6,41.2,35.3,31.9,33.9,30.8,29.5,92,84,66,30.13,29.70,4,0,15,0.47
2013-3-7,42.0,36.4,33.2,33.0,30.2,27.3,89,79,66,30.30,30.12,5,1,14,0.00
2013-3-8,39.5,33.9,27.5,30.6,27.1,23.6,85,76,67,30.44,30.30,5,1,12,0.00
2013-3-9,56.9,37.9,22.8,35.6,28.0,20.0,91,70,40,30.44,30.20,2,0,7,0.00
2013-3-10,71.9,51.9,32.6,41.7,34.7,27.6,84,57,31,30.20,29.99,4,1,11,0.00
2013-3-11,64.3,55.7,46.1,49.3,39.1,34.8,86,56,36,30.01,29.69,4,1,15,0.06
2013-3-12,53.1,41.2,37.6,49.3,34.7,28.9,92,78,66,30.01,29.74,7,2,18,0.02
2013-3-13,37.6,34.8,33.8,29.3,28.6,27.6,81,78,71,30.00,29.97,1,0,1,0.00
2013-3-14,40.1,31.0,26.0,23.5,20.5,17.8,79,65,48,30.25,30.14,9,4,24,0.00
2013-3-15,50.6,37.1,24.5,38.0,27.5,19.8,84,69,56,30.14,29.83,6,2,19,0.00
2013-3-16,42.2,38.4,35.4,37.8,35.0,31.5,90,88,84,29.97,29.64,2,0,6,0.02
2013-3-17,37.7,33.6,29.9,31.5,25.1,23.0,86,71,60,30.22,29.98,3,1,10,0.00
2013-3-18,42.5,35.9,30.2,36.9,30.0,22.9,89,79,66,30.19,29.71,4,1,14,0.41
2013-3-19,45.7,39.2,31.3,40.3,28.9,19.3,92,67,46,29.99,29.71,11,4,31,0.02
2013-3-20,41.1,33.1,27.1,24.1,20.3,18.0,71,60,46,30.00,29.83,8,2,25,0.00
2013-3-21,29.3,25.4,20.0,20.6,14.7,9.6,81,64,49,29.95,29.88,8,3,17,0.00
2013-3-22,28.0,27.7,27.4,21.0,20.5,19.8,76,74,72,29.95,29.94,3,2,11,0.00
2013-3-26,36.3,36.3,36.3,31.0,31.0,31.0,81,81,81,30.07,30.07,0,0,5,0.00
2013-4-2,40.4,32.6,26.2,21.3,18.2,15.3,73,56,40,30.22,30.04,10,3,22,0.00
2013-4-3,39.8,31.2,22.4,24.1,17.0,13.0,86,57,37,30.45,30.21,11,2,27,0.00
2013-4-4,52.8,30.2,19.4,21.3,16.6,14.6,83,62,24,30.42,30.14,4,1,11,0.00
2013-4-5,55.7,42.0,27.9,34.4,26.3,21.5,83,56,35,30.23,29.95,11,2,21,0.00
2013-4-6,60.8,45.2,25.9,29.0,22.0,15.3,81,44,21,30.32,29.99,5,1,12,0.00
2013-4-7,72.1,62.3,48.1,49.2,42.1,28.7,77,49,38,30.00,29.86,9,3,26,0.00
2013-4-8,75.2,64.5,45.9,52.3,48.6,40.7,85,58,41,30.03,29.87,9,2,20,0.00
2013-4-9,81.7,69.9,56.8,58.4,54.7,49.8,79,59,44,30.07,29.87,6,2,12,0.00
2013-4-10,83.0,67.2,56.6,64.3,57.3,50.8,92,72,48,29.95,29.75,8,2,18,0.23
2013-4-11,60.0,59.4,58.9,57.8,57.3,56.9,94,93,92,29.86,29.83,1,0,3,0.23
2013-4-12,66.1,59.3,46.8,60.2,51.9,35.7,94,77,58,29.85,29.48,11,4,22,0.55
2013-4-13,55.6,47.3,39.9,38.2,35.5,32.8,77,64,50,30.02,29.84,8,3,17,0.55
2013-4-14,62.2,49.1,33.0,42.2,35.0,27.6,84,60,44,30.18,30.02,6,1,12,0.00
2013-4-15,67.9,61.8,55.3,51.9,47.7,40.3,68,60,53,30.10,29.98,6,2,14,0.00
2013-4-16,81.0,64.7,49.8,62.7,55.3,46.4,94,73,53,30.19,30.00,7,2,14,1.12
2013-4-17,69.2,59.5,53.2,58.6,54.3,48.5,94,84,68,30.23,30.08,2,1,8,0.00
2013-4-18,85.2,72.8,57.6,65.6,60.0,54.1,92,66,47,30.10,29.75,7,3,21,0.00
2013-4-19,73.6,61.3,45.8,61.9,50.4,32.8,85,68,58,29.85,29.45,11,4,23,0.12
2013-4-20,48.0,42.1,36.4,33.5,29.4,26.3,78,61,47,30.42,29.85,10,5,21,0.01
2013-4-21,54.8,42.4,28.5,29.8,26.0,23.8,89,55,34,30.62,30.42,5,1,11,0.00
2013-4-22,62.7,50.9,39.6,34.8,30.7,26.3,75,48,29,30.49,30.28,4,2,14,0.00
2013-4-23,71.1,55.2,36.8,43.5,37.4,31.9,87,54,31,30.30,29.96,4,1,9,0.00
2013-4-24,72.0,55.5,41.6,56.5,46.4,34.4,90,73,54,30.16,29.74,12,3,25,0.15
2013-4-25,58.1,46.7,35.4,40.0,34.3,30.5,88,64,40,30.37,30.17,7,3,20,0.00
2013-4-26,61.0,49.2,37.4,42.1,35.7,32.4,93,63,36,30.48,30.36,4,1,10,0.00
2013-4-27,75.0,56.2,35.5,43.6,38.5,32.0,91,57,29,30.41,30.15,4,1,10,0.00
2013-4-28,61.3,55.3,48.1,52.4,45.6,42.4,89,71,50,30.16,30.05,2,0,9,0.13
2013-4-29,65.5,58.6,54.2,58.3,53.8,48.2,92,84,74,30.02,29.93,4,0,9,0.07
2013-4-30,71.6,61.9,52.4,57.6,53.6,50.3,93,75,58,30.18,30.02,4,1,13,0.07
2013-5-1,76.8,64.0,50.9,56.3,49.6,39.6,90,62,38,30.30,30.18,4,1,13,0.00
2013-5-2,78.7,62.3,44.5,47.4,41.5,35.7,92,52,22,30.35,30.19,4,1,12,0.00
2013-5-3,74.3,61.0,44.1,50.2,44.6,38.5,90,58,33,30.25,30.15,5,2,19,0.00
2013-5-4,72.0,60.4,44.8,48.6,42.7,37.1,80,53,36,30.20,30.07,4,2,14,0.00
2013-5-5,74.5,61.3,45.8,43.9,38.5,30.5,84,47,22,30.14,30.00,5,2,16,0.00
2013-5-6,70.1,58.6,42.8,55.5,48.3,38.6,89,69,53,30.08,29.99,5,1,14,0.00
2013-5-7,69.1,61.6,57.1,59.0,55.6,52.8,90,81,66,30.02,29.93,3,1,7,0.05
2013-5-8,73.8,63.0,53.0,57.7,53.6,50.1,94,74,45,29.98,29.86,3,1,10,0.05
2013-5-9,78.2,63.6,53.6,60.3,55.0,51.3,95,76,46,29.98,29.88,5,1,11,0.06
2013-5-10,76.1,61.8,54.4,65.0,57.7,51.7,93,87,66,29.99,29.79,6,1,12,0.39
2013-5-11,61.3,57.8,51.5,59.6,54.7,48.6,95,90,79,29.83,29.75,4,1,10,0.29
2013-5-12,53.3,48.8,40.0,49.4,35.9,31.5,91,62,45,30.06,29.82,8,3,18,0.00
2013-5-13,53.2,44.8,34.4,33.7,30.1,27.8,83,58,39,30.20,30.06,8,2,17,0.00
2013-5-14,62.0,47.3,30.5,44.9,36.5,27.2,91,68,49,30.22,29.90,3,1,8,0.00
2013-5-15,87.1,67.3,48.7,67.1,56.5,43.4,90,70,48,29.90,29.69,8,2,18,0.00
2013-5-16,67.6,65.1,63.7,61.8,60.8,60.1,91,86,81,29.79,29.74,1,0,3,0.04
2013-5-17,82.9,67.1,55.4,63.3,57.8,52.9,95,75,43,30.08,29.95,4,1,9,0.00
2013-5-18,84.1,67.8,52.1,65.4,58.2,49.7,94,73,46,30.12,30.00,3,1,11,0.00
2013-5-19,66.1,64.1,62.3,60.1,59.0,58.1,86,83,81,30.06,30.04,0,0,3,0.09
2013-5-20,85.7,72.6,60.5,71.5,65.5,58.5,96,80,60,30.01,29.88,4,1,10,0.00
2013-5-21,87.2,75.4,62.9,72.9,67.8,61.0,96,79,57,29.94,29.79,5,1,15,0.00
2013-5-22,66.7,66.5,66.3,63.4,63.1,62.8,89,89,88,29.80,29.79,1,0,1,0.10
2013-5-23,76.6,65.4,53.1,65.0,61.6,50.8,95,88,62,29.86,29.75,6,1,10,0.74
2013-5-24,52.5,46.5,41.9,49.6,39.4,33.2,91,77,62,30.30,29.86,5,2,16,0.02
2013-5-25,62.1,48.5,34.7,42.8,37.1,31.5,91,67,43,30.34,30.22,7,2,18,0.00
2013-5-26,67.8,52.2,37.3,44.5,39.5,34.2,91,65,39,30.31,30.20,6,1,10,0.00
2013-5-27,62.9,53.4,39.9,52.4,45.1,36.8,92,74,57,30.28,30.09,3,0,6,0.00
2013-5-28,80.9,65.5,54.9,69.0,59.7,49.8,95,82,60,30.10,29.97,6,1,16,0.20
2013-5-29,86.0,74.0,62.1,68.0,63.6,59.4,93,72,50,30.07,29.99,6,2,12,0.00
2013-5-30,89.1,74.4,60.0,71.1,65.1,57.4,94,75,51,30.16,30.04,3,1,6,0.00
2013-5-31,88.2,75.5,62.8,70.2,66.1,60.7,95,75,51,30.09,29.95,4,1,8,0.00
2013-6-1,87.2,77.2,68.0,71.6,67.4,63.6,88,73,57,29.98,29.78,6,2,11,0.00
2013-6-2,79.9,74.0,68.0,68.0,65.7,63.0,92,76,60,29.84,29.76,6,2,14,0.14
2013-6-3,69.0,63.8,52.9,64.4,56.5,45.5,86,77,65,30.05,29.83,4,1,7,0.00
2013-6-4,75.6,59.5,44.1,55.2,47.8,40.3,91,67,44,30.17,30.05,4,1,7,0.00
2013-6-5,84.7,66.8,49.9,67.5,57.1,47.1,92,73,54,30.13,29.91,3,0,7,0.00
2013-6-6,70.4,66.1,63.1,66.6,62.7,60.1,95,89,73,29.92,29.75,2,0,7,0.43
2013-6-7,66.9,63.8,60.4,63.3,61.2,55.9,96,92,84,29.83,29.72,2,0,5,0.07
2013-6-8,73.6,63.2,57.4,60.2,56.3,53.6,89,79,61,30.10,29.83,3,1,6,0.02
2013-6-9,85.1,70.4,57.1,70.8,61.9,54.4,94,76,52,30.15,29.98,3,0,5,0.01
2013-6-10,76.0,70.1,65.7,71.5,66.8,63.0,94,90,79,29.99,29.75,4,0,8,0.00
2013-6-11,77.9,69.5,64.5,67.8,64.5,62.4,93,85,66,29.86,29.77,5,1,8,0.01
2013-6-12,67.0,65.9,64.8,63.5,63.1,62.2,92,91,88,29.85,29.83,0,0,0,0.00
2013-6-13,73.1,67.1,61.7,71.3,62.1,-99.9,95,86,78,29.76,29.47,7,2,24,0.02
2013-6-14,75.5,64.1,56.7,62.3,57.6,53.7,92,80,59,30.04,29.76,5,1,13,0.03
2013-6-15,80.5,65.5,53.8,59.3,55.6,51.5,95,73,41,30.12,29.98,3,1,9,0.02
2013-6-16,74.8,68.1,62.9,69.4,63.7,58.5,93,86,77,30.00,29.88,4,1,12,0.01
2013-6-17,83.0,73.4,66.9,68.9,65.7,63.2,92,78,55,29.95,29.85,3,1,5,0.02
2013-6-18,78.8,68.3,63.2,69.8,64.3,60.8,93,87,71,29.92,29.81,5,0,9,0.01
2013-6-19,79.8,66.5,56.0,62.3,55.7,51.8,93,71,43,30.13,29.92,3,1,8,0.01
2013-6-20,82.8,67.5,52.3,63.5,56.4,50.3,95,71,42,30.21,30.13,3,0,6,0.01
2013-6-21,88.6,71.0,56.8,67.9,60.8,54.8,95,73,46,30.23,30.12,2,0,6,0.00
2013-6-22,88.3,75.1,60.9,73.6,66.9,58.6,95,77,58,30.18,30.03,4,1,7,0.00
2013-6-23,88.3,77.6,66.7,74.0,69.2,64.3,94,77,53,30.13,30.01,5,1,9,0.01
2013-6-24,89.4,78.5,67.3,73.9,69.3,65.2,94,75,53,30.10,29.96,3,1,9,0.00
2013-6-25,88.8,76.2,67.1,73.8,68.6,64.0,93,79,59,30.02,29.84,6,1,10,0.00
2013-6-26,83.7,73.5,66.2,73.3,68.5,64.7,96,85,65,29.95,29.78,3,1,8,0.00
2013-6-27,71.5,69.3,68.5,68.8,67.4,66.7,95,94,91,29.78,29.71,0,0,1,0.00
2013-6-28,68.0,20.7,63.1,66.5,-48.1,-99.9,95,30,92,29.56,29.52,2,0,3,0.00
2013-6-29,80.3,68.8,60.6,69.3,64.0,59.2,96,85,62,29.68,29.53,5,1,15,0.01
2013-6-30,83.9,71.5,61.7,72.0,66.0,60.0,97,83,62,29.82,29.67,6,0,17,0.00
2013-7-1,80.8,71.7,66.7,72.1,67.9,64.7,95,88,71,29.94,29.78,3,0,10,0.00
2013-7-2,85.8,75.4,67.1,74.7,69.9,65.6,96,84,62,30.03,29.91,4,1,10,0.00
2013-7-3,86.7,76.5,68.5,75.6,70.0,66.4,95,81,61,30.14,30.03,4,1,15,0.00
2013-7-4,89.7,76.3,68.8,75.4,70.3,67.1,95,83,61,30.19,30.07,4,1,18,0.00
2013-7-5,85.4,76.7,67.9,75.0,70.5,66.7,97,82,65,30.14,30.06,4,1,11,0.00
2013-7-6,90.8,77.7,69.0,76.2,71.5,67.4,96,82,59,30.14,29.98,3,1,7,0.00
2013-7-7,78.0,74.1,70.6,72.3,70.0,67.7,93,87,75,30.07,29.97,3,1,9,0.00
2013-7-8,84.5,74.4,67.1,74.2,68.5,64.5,94,83,66,30.10,30.00,4,1,8,0.00
2013-7-9,83.3,73.9,68.8,77.6,71.0,67.2,97,91,80,30.09,29.93,4,1,14,0.00
2013-7-10,86.1,74.1,68.4,79.6,71.5,67.4,97,92,78,29.98,29.78,3,1,13,0.00
2013-7-11,78.5,70.3,60.7,68.4,64.3,58.2,96,82,61,29.98,29.90,4,0,12,0.00
2013-7-12,77.0,67.9,57.9,70.2,63.6,55.9,95,86,74,30.06,29.97,4,0,9,0.00
2013-7-13,86.3,74.2,63.0,73.5,67.9,61.2,95,82,64,30.20,30.07,2,0,7,0.00
2013-7-14,92.2,79.0,67.6,76.9,70.9,65.8,95,78,56,30.26,30.19,4,1,12,0.00
2013-7-15,94.6,80.1,68.7,79.1,72.4,66.8,96,79,57,30.31,30.19,3,0,8,0.00
2013-7-16,92.2,76.0,71.0,81.4,71.0,-99.9,97,87,64,30.28,30.19,6,0,19,0.00
2013-7-17,90.6,75.7,70.3,80.6,73.0,69.1,98,92,70,30.27,30.12,5,0,13,0.00
2013-7-18,92.4,79.5,70.8,81.4,74.2,-99.9,98,86,65,30.13,29.98,3,-4,6,0.00
2013-7-19,90.5,79.7,73.7,79.5,74.9,70.9,97,86,67,30.00,29.82,5,1,12,0.00
2013-7-20,80.7,75.4,71.5,74.6,70.9,68.1,93,86,76,29.89,29.81,6,1,16,0.00
2013-7-21,84.7,73.6,68.2,75.5,69.8,66.0,96,88,70,29.94,29.86,4,0,11,0.00
2013-7-22,81.6,71.3,66.4,76.1,69.4,65.2,97,94,81,29.92,29.74,3,0,7,0.00
2013-7-23,84.3,72.9,65.9,72.3,68.5,63.3,96,87,63,29.75,29.66,6,1,9,0.00
2013-7-24,72.7,65.0,56.7,63.5,58.5,53.8,93,80,63,29.99,29.76,5,1,11,0.00
2013-7-25,78.1,64.2,53.3,62.7,56.1,51.1,94,77,53,30.07,29.97,3,1,10,0.00
2013-7-26,82.0,67.2,54.6,65.0,58.9,52.7,96,77,50,30.09,29.97,3,0,7,0.00
2013-7-27,71.8,65.9,59.6,69.3,63.6,57.6,96,92,87,29.99,29.83,2,0,4,0.00
2013-7-28,76.5,68.3,59.9,66.5,62.3,56.3,96,82,59,30.02,29.83,5,1,10,0.00
2013-7-29,73.5,63.6,53.5,62.2,56.9,51.7,96,80,59,30.18,30.02,4,1,18,0.00
2013-7-30,79.2,65.9,55.1,67.0,59.4,52.8,95,81,58,30.23,30.13,3,0,6,0.00
2013-7-31,78.9,67.9,58.6,69.4,63.4,56.6,95,86,64,30.14,29.94,3,0,6,0.00
2013-8-1,80.8,71.5,66.5,68.8,65.9,62.9,95,84,62,29.94,29.82,4,1,9,0.00
2013-8-2,77.9,69.5,60.2,65.6,61.7,58.0,96,78,53,29.96,29.87,5,1,11,0.00
2013-8-3,76.0,68.4,60.7,69.9,64.5,57.1,94,87,76,29.97,29.90,4,1,10,0.00
2013-8-4,74.9,64.7,55.8,63.1,58.3,54.4,96,81,58,30.07,29.97,4,1,9,0.00
2013-8-5,74.3,63.9,53.9,62.0,57.1,51.8,95,80,56,30.12,30.00,3,0,5,0.00
2013-8-6,83.6,68.7,57.1,66.7,59.9,55.1,94,76,52,30.02,29.94,2,0,6,0.00
2013-8-7,84.9,70.7,61.8,75.0,66.5,59.5,95,87,68,29.98,29.88,3,0,8,0.00
2013-8-8,85.7,74.4,66.2,77.0,70.5,64.8,97,88,74,29.95,29.86,4,1,8,0.00
2013-8-9,79.0,74.4,69.1,74.7,71.4,66.7,95,90,80,29.98,29.85,4,0,7,0.00
2013-8-10,80.4,71.9,64.5,71.8,66.6,62.7,96,84,64,30.07,29.98,3,0,7,0.00
2013-8-11,83.7,71.4,62.3,73.0,66.4,60.2,95,85,65,30.10,29.98,3,0,6,0.00
2013-8-12,83.2,73.0,67.0,71.6,66.7,-99.9,97,84,63,30.03,29.85,4,-10,10,0.00
2013-8-13,79.4,70.8,58.9,69.9,64.5,53.2,94,81,63,29.95,29.77,4,1,11,0.00
2013-8-14,69.9,59.2,51.9,58.0,53.2,49.4,93,81,61,30.14,29.95,4,1,10,0.00
2013-8-15,54.6,53.0,50.8,51.4,50.4,48.6,92,91,89,30.17,30.14,0,0,1,0.00
2013-8-21,86.0,74.0,59.2,72.1,66.6,57.2,95,79,54,30.18,30.01,3,0,6,0.00
2013-8-22,82.4,72.6,66.6,74.2,69.1,64.7,96,89,72,30.07,29.94,4,1,10,0.00
2013-8-23,83.6,73.1,67.8,71.0,67.7,63.7,96,84,62,30.08,29.97,2,0,7,0.00
2013-8-24,81.5,68.2,57.1,67.7,61.6,55.1,95,81,56,30.32,30.19,3,0,7,0.00
2013-8-25,82.2,69.7,56.8,67.7,62.5,54.9,96,80,54,30.35,30.19,4,1,9,0.00
2013-8-26,84.9,73.9,59.0,70.4,66.8,57.3,96,80,58,30.23,29.96,5,1,15,0.00
2013-8-27,82.3,75.5,70.3,75.2,71.3,67.9,96,87,74,29.97,29.84,4,1,11,0.00
2013-8-28,79.6,72.7,69.9,75.7,70.9,68.7,97,94,84,29.91,29.78,3,0,10,0.00
2013-8-29,87.7,75.6,69.5,76.2,70.6,67.1,96,86,64,30.00,29.88,2,0,6,0.00
2013-8-30,87.5,74.7,64.7,74.4,69.4,63.5,97,85,64,29.98,29.79,4,1,12,0.00
2013-8-31,86.6,76.2,68.7,76.1,71.0,67.2,96,85,65,29.82,29.73,4,1,7,0.00
2013-9-1,81.6,74.0,69.6,74.8,70.8,68.0,95,90,78,29.81,29.74,3,0,10,0.00
2013-9-2,84.7,74.2,67.2,74.6,70.0,65.1,97,88,68,29.81,29.69,5,1,10,0.00
2013-9-3,73.2,66.4,59.0,65.2,60.8,55.4,96,83,61,30.02,29.80,4,1,11,0.00
2013-9-4,78.7,63.8,52.7,62.7,57.2,51.3,96,81,53,30.12,30.02,3,1,8,0.00
2013-9-5,74.6,64.8,56.5,62.9,57.3,50.1,95,78,56,30.19,30.05,4,1,11,0.00
2013-9-6,75.9,60.6,47.7,55.4,49.9,45.5,94,71,41,30.27,30.12,3,1,6,0.00
2013-9-7,80.8,63.6,48.2,62.6,54.6,46.0,94,75,48,30.13,29.93,3,1,7,0.00
2013-9-8,79.1,69.3,62.6,70.4,63.8,59.6,92,83,71,30.03,29.90,2,0,6,0.00
2013-9-9,82.4,68.5,57.5,74.4,64.5,55.5,95,88,72,30.08,29.97,4,0,8,0.00
2013-9-10,89.8,77.4,67.3,79.3,72.6,65.8,97,86,70,30.10,30.02,4,1,12,0.00
2013-9-11,87.1,76.5,72.0,79.6,73.4,70.2,96,90,73,30.11,29.98,5,0,8,0.00
2013-9-12,77.6,71.4,63.0,72.9,68.9,60.9,97,92,79,29.98,29.76,6,0,14,0.00
2013-9-13,63.0,61.6,59.4,61.4,59.3,57.1,96,92,89,29.83,29.80,1,0,3,0.00
2013-9-23,57.3,50.2,40.6,49.4,44.4,38.7,93,81,66,30.15,30.05,2,0,8,0.00
2013-9-24,72.3,54.8,40.4,54.7,47.3,38.5,95,78,51,30.14,29.93,3,1,9,0.00
2013-9-25,76.6,59.7,45.7,57.9,52.0,43.8,95,78,46,29.96,29.86,3,0,7,0.00
2013-9-26,77.6,60.4,48.5,58.2,52.0,46.3,95,77,46,30.11,29.96,4,0,10,0.00
2013-9-27,76.5,60.8,47.2,60.5,53.5,45.0,95,79,52,30.20,30.11,2,0,7,0.00
2013-9-28,74.4,60.2,49.2,59.7,52.8,46.9,96,78,56,30.26,30.12,4,0,11,0.00
2013-9-29,76.1,65.8,50.4,63.3,57.0,48.2,94,74,61,30.13,29.99,4,1,10,0.00
2013-9-30,71.1,61.2,52.4,64.4,57.2,50.4,94,87,76,30.05,29.96,2,0,6,0.00
2013-10-1,78.5,66.3,59.0,64.7,60.4,57.0,95,82,60,30.07,29.97,5,1,13,0.00
2013-10-2,81.6,67.5,56.3,68.3,61.8,54.6,96,83,62,30.09,30.00,4,1,8,0.00
2013-10-3,80.4,68.2,58.4,70.4,63.5,56.7,96,86,69,30.08,29.98,3,0,8,0.00
2013-10-4,82.3,70.4,64.3,70.5,66.5,62.8,96,88,64,30.09,29.99,4,0,12,0.00
2013-10-5,83.0,71.0,64.9,72.3,67.2,63.6,96,88,67,30.07,29.95,4,0,11,0.00
2013-10-6,86.2,74.1,64.6,70.6,65.8,62.1,97,77,52,29.94,29.73,4,1,13,0.00
2013-10-7,72.3,58.4,47.7,63.1,51.2,44.9,93,78,60,30.12,29.66,7,2,17,0.00
2013-10-8,68.3,52.8,42.1,51.5,46.0,40.2,94,79,53,30.31,30.12,3,0,9,0.00
2013-10-9,68.6,54.1,41.9,50.7,45.6,40.1,95,76,46,30.34,30.23,3,0,15,0.00
2013-10-10,49.7,47.2,46.2,45.5,43.9,43.1,89,88,86,30.24,30.20,0,0,0,0.00
2013-10-11,59.6,56.0,52.9,57.3,54.0,49.8,95,93,89,30.09,30.04,2,0,5,0.00
2013-10-12,75.4,64.1,53.9,65.0,59.1,52.2,95,84,69,30.19,30.06,4,0,10,0.00
2013-10-13,71.7,65.1,57.1,63.1,59.6,54.8,94,83,71,30.24,30.19,4,0,9,0.00
2013-10-14,62.3,59.6,54.3,59.0,57.0,52.6,95,91,87,30.28,30.15,2,0,6,0.00
2013-10-15,61.9,59.7,58.0,57.0,56.0,54.9,90,88,83,29.99,29.97,0,0,2,0.00
2013-10-16,64.5,59.3,55.4,62.1,57.1,53.1,94,92,89,29.98,29.86,2,0,10,0.00
2013-10-17,63.9,55.9,50.6,60.9,53.5,47.9,95,91,87,29.90,29.66,5,1,8,0.00
2013-10-18,62.5,52.9,44.6,48.1,45.3,41.6,90,76,53,30.03,29.90,6,2,16,0.00
2013-10-19,54.2,46.0,38.2,48.7,42.2,36.4,97,87,76,29.98,29.76,8,1,16,0.00
2013-10-20,58.8,47.4,38.5,43.8,39.9,36.1,92,77,53,30.06,29.96,7,1,15,0.00
2013-10-21,67.4,49.9,35.2,45.2,39.7,32.8,94,72,40,30.09,29.86,6,1,11,0.00
2013-10-22,53.1,47.2,41.8,48.4,38.8,32.6,90,74,48,29.97,29.83,5,1,10,0.00
2013-10-23,42.4,40.8,37.3,39.1,37.1,34.3,90,87,82,29.95,29.77,3,0,7,0.00
2013-10-24,45.9,39.6,33.8,35.0,32.4,29.5,90,76,54,30.17,29.95,6,2,14,0.00
2013-10-25,48.1,39.0,29.9,35.5,31.3,27.3,92,75,53,30.36,30.17,5,1,13,0.00
2013-10-26,50.4,41.8,30.3,34.2,30.3,27.2,89,66,45,30.28,29.92,8,2,18,0.00
2013-10-27,54.1,44.0,33.0,37.1,33.6,29.6,91,68,48,30.12,30.00,6,1,15,0.00
2013-10-28,60.0,43.5,29.7,42.8,34.7,27.1,92,73,44,30.31,30.11,3,0,6,0.00
2013-10-29,60.1,45.8,33.8,44.3,38.3,31.2,94,77,51,30.40,30.28,4,0,7,0.00
2013-10-30,64.8,51.8,42.0,53.5,46.0,38.8,91,81,62,30.28,30.11,2,0,5,0.00
2013-10-31,68.5,62.2,55.3,59.9,57.2,52.1,94,84,72,30.11,29.47,7,1,22,0.00
2013-11-1,72.3,68.7,66.2,60.7,58.2,56.9,72,69,66,29.46,29.33,11,5,16,0.00
2013-11-2,53.6,47.6,38.8,45.4,41.4,33.8,92,79,67,30.14,29.69,8,2,18,0.00
2013-11-3,49.7,49.2,48.9,35.1,34.5,34.0,57,57,56,30.32,30.31,6,4,15,0.00
2013-11-4,47.6,40.5,27.7,31.9,27.6,23.8,87,61,43,30.58,30.44,4,1,11,0.01
2013-11-5,59.6,46.2,33.7,39.0,33.9,30.0,87,64,44,30.54,30.26,3,0,9,0.00
2013-11-6,74.2,61.4,33.7,57.1,51.1,30.2,93,71,50,30.26,29.85,7,2,18,0.00
2013-11-7,47.6,42.7,36.9,45.4,34.6,28.0,92,74,57,30.19,29.93,10,3,21,0.00
2013-11-8,45.2,39.6,29.3,31.6,28.9,24.8,83,66,51,30.32,30.19,7,3,20,0.00
2013-11-9,59.0,42.5,27.2,34.2,28.5,23.8,88,62,33,30.32,29.98,6,2,18,0.01
2013-11-10,54.2,46.3,35.9,38.0,33.0,28.3,75,60,45,30.29,29.98,9,4,21,0.01
2013-11-11,50.7,40.7,29.2,39.9,31.1,25.8,90,71,43,30.30,30.06,6,2,12,0.01
2013-11-12,38.4,31.9,28.4,34.1,25.8,19.9,92,79,53,30.50,30.11,5,1,12,0.01
2013-11-13,28.3,27.8,27.0,24.2,23.5,21.9,86,83,81,30.51,30.50,4,2,6,0.00
2013-11-14,51.3,36.1,26.9,27.6,24.2,20.7,86,64,36,30.40,30.20,6,1,15,0.02
2013-11-15,56.9,47.1,28.3,39.1,32.3,24.6,87,59,32,30.25,30.15,6,1,16,0.05
2013-11-16,62.8,54.1,36.3,49.9,45.3,32.7,90,73,62,30.25,30.03,4,1,12,0.00
2013-11-17,62.4,56.3,48.6,59.0,52.7,44.3,92,88,78,30.03,29.53,8,1,13,0.00
2013-11-18,59.4,50.6,40.0,52.9,37.6,27.7,80,61,49,30.06,29.61,10,6,22,0.00
2013-11-19,40.0,36.2,28.0,28.7,26.2,23.1,83,67,60,30.44,30.06,7,1,13,0.00
2013-11-20,50.0,36.3,23.4,27.1,21.1,18.0,90,59,30,30.51,30.38,5,1,17,0.01
2013-11-21,58.3,43.0,28.5,40.7,32.2,19.5,84,67,48,30.47,30.24,3,0,6,0.04
2013-11-22,53.9,48.8,38.1,52.0,45.2,32.8,94,87,73,30.24,30.05,4,1,17,0.01
2013-11-23,38.4,32.8,21.7,32.5,24.3,10.4,85,71,54,30.37,30.14,9,3,22,0.01
2013-11-24,24.1,20.1,17.5,13.2,11.6,10.4,74,69,61,30.54,30.37,9,5,15,0.01
2013-11-25,37.9,31.2,13.8,29.6,18.0,8.8,90,61,35,30.54,30.20,5,1,14,0.04
2013-11-26,34.4,33.1,31.4,32.9,31.1,28.8,94,92,90,30.21,29.74,3,0,7,0.12
2013-11-27,32.9,26.7,19.7,30.4,21.1,13.1,92,79,71,30.36,29.75,8,4,20,0.02
2013-11-28,29.7,26.1,19.3,22.2,17.4,13.0,77,70,60,30.47,30.34,7,2,17,0.01
2013-11-29,36.0,29.7,23.4,24.9,21.8,19.3,86,73,57,30.70,30.47,4,0,8,0.02
2013-11-30,40.7,29.3,21.2,27.1,22.4,17.9,89,76,56,30.67,30.27,2,0,8,0.03
2013-12-1,45.9,35.0,25.9,33.6,28.8,21.9,89,79,59,30.27,30.00,4,0,11,0.04
2013-12-2,51.6,41.2,34.7,39.7,34.9,31.2,88,79,62,30.00,29.83,3,0,8,0.01
2013-12-3,56.1,42.9,37.1,44.0,37.8,34.4,93,83,62,29.93,29.86,3,0,7,0.01
2013-12-4,60.5,45.7,33.2,50.3,40.6,30.8,93,83,68,30.02,29.89,2,0,7,0.00
2013-12-5,65.5,54.7,40.4,58.4,51.0,38.0,95,87,71,30.05,29.85,6,1,10,0.00
2013-12-6,40.4,34.7,29.7,37.7,32.2,27.6,92,91,86,30.31,30.03,2,0,7,0.00
2013-12-7,32.4,27.7,21.8,27.6,22.5,16.5,92,81,68,30.63,30.29,4,1,11,0.08
2013-12-8,26.5,21.8,19.3,23.7,16.5,13.9,89,80,76,30.62,30.36,2,0,8,0.08
2013-12-13,36.5,31.1,27.2,21.7,20.5,17.6,78,65,53,30.30,30.24,6,1,9,0.01
2013-12-14,37.2,32.3,27.7,35.1,28.5,21.4,93,86,77,30.29,29.68,3,0,7,0.00
2013-12-15,39.8,31.1,23.1,38.1,25.8,12.4,94,81,61,30.06,29.65,9,5,16,0.00
2013-12-16,23.0,23.0,23.0,13.0,13.0,13.0,65,65,65,30.07,30.06,5,5,8,0.00
2013-12-19,41.9,34.6,33.1,34.6,26.1,-99.9,87,80,75,30.09,30.07,0,-42,3,0.04
2013-12-20,58.2,49.0,32.7,50.3,41.5,29.5,90,77,52,30.07,29.90,6,1,15,0.04
2013-12-21,60.7,57.7,54.8,59.2,54.4,49.1,95,89,80,29.91,29.65,3,1,8,0.10
2013-12-22,69.9,60.9,55.5,61.1,55.8,49.1,95,83,72,29.92,29.55,9,3,25,0.03
2013-12-23,56.4,40.3,31.7,49.2,35.0,21.7,93,81,66,30.31,29.92,7,2,9,0.01
2013-12-24,31.8,24.3,15.2,23.8,15.6,8.7,86,69,55,30.57,30.25,9,4,14,0.00
2013-12-25,27.5,20.7,13.4,20.6,13.2,8.0,82,73,62,30.58,30.28,2,0,5,0.00
2013-12-26,37.7,31.5,25.8,27.6,23.4,18.4,89,73,55,30.39,30.19,9,2,16,0.10
2013-12-27,43.3,31.5,24.1,30.1,23.7,18.1,85,73,57,30.41,30.31,6,1,12,0.18
2013-12-28,53.7,37.5,25.1,34.9,28.1,21.5,87,71,48,30.31,30.09,7,1,18,0.15
2013-12-29,43.3,39.2,34.0,41.0,36.1,28.5,93,89,79,30.09,29.67,7,1,14,0.03
2013-12-30,41.1,28.2,23.5,38.0,22.4,16.1,89,79,71,30.23,29.86,6,2,15,0.02
2013-12-31,26.9,25.1,23.2,21.7,18.8,15.5,85,77,68,30.36,30.12,8,3,17,0.00
2014-1-1,38.2,30.7,26.0,27.9,23.3,19.0,79,74,64,30.37,30.08,4,0,7,0.06
2014-1-2,31.0,26.3,11.9,27.0,22.1,7.2,90,84,79,30.08,29.70,2,0,9,0.00